Time;durP1;ratioP1;P1;durP2;ratioP2;P2;SDS_P1;SDS_P2;PMS_P1;PMS_P2;Temp;Humidity;BMP_temperature;BMP_pressure;BME280_temperature;BME280_humidity;BME280_pressure;Samples;Min_cycle;Max_cycle;Signal;HPM_P1;HPM_P2
2022/12/29 00:03:19;;;;;;;7.10;2.63;;;;;;;;;;21235935;27;20055;-61
2022/12/29 00:44:23;;;;;;;5.85;2.60;;;;;;;;;;21252295;27;20539;-64
2022/12/29 00:54:25;;;;;;;7.70;2.53;;;;;;;;;;21252192;27;20051;-62
2022/12/29 01:04:27;;;;;;;11.70;2.90;;;;;;;;;;21249987;27;20055;-64
2022/12/29 01:14:29;;;;;;;10.82;3.08;;;;;;;;;;21251065;27;20065;-63
2022/12/29 01:24:31;;;;;;;13.80;4.55;;;;;;;;;;21249293;27;20050;-62
2022/12/29 01:34:34;;;;;;;12.45;5.25;;;;;;;;;;21249197;27;20491;-63
2022/12/29 01:44:55;;;;;;;11.43;5.65;;;;;;;;;;21247831;28;20039;-62
2022/12/29 01:54:57;;;;;;;11.50;6.53;;;;;;;;;;21248407;28;20495;-60
2022/12/29 02:05:00;;;;;;;12.93;6.15;;;;;;;;;;21246949;28;20054;-62
2022/12/29 02:15:02;;;;;;;10.15;5.65;;;;;;;;;;21254157;27;20051;-61
2022/12/29 02:25:05;;;;;;;11.05;5.57;;;;;;;;;;21264109;27;20415;-60
2022/12/29 02:35:20;;;;;;;12.57;6.45;;;;;;;;;;21263624;27;20047;-64
2022/12/29 02:45:42;;;;;;;13.93;5.85;;;;;;;;;;21261591;27;20047;-59
2022/12/29 02:55:53;;;;;;;15.18;6.55;;;;;;;;;;21261123;27;20072;-60
2022/12/29 03:06:01;;;;;;;11.45;5.40;;;;;;;;;;21260313;27;20070;-62
2022/12/29 03:16:15;;;;;;;9.05;4.80;;;;;;;;;;21259728;27;20043;-59
2022/12/29 03:26:21;;;;;;;8.50;3.90;;;;;;;;;;21258476;27;20040;-58
2022/12/29 03:36:32;;;;;;;6.47;2.95;;;;;;;;;;21258297;27;20047;-59
2022/12/29 03:46:35;;;;;;;9.95;3.17;;;;;;;;;;21257067;27;20043;-60
2022/12/29 03:56:37;;;;;;;6.47;3.53;;;;;;;;;;21256731;27;20491;-60
2022/12/29 04:06:40;;;;;;;8.98;4.10;;;;;;;;;;21256079;27;20043;-59
2022/12/29 04:16:43;;;;;;;9.52;4.50;;;;;;;;;;21254720;27;20043;-58
2022/12/29 04:26:46;;;;;;;10.48;4.70;;;;;;;;;;21254316;27;20515;-59
2022/12/29 04:36:48;;;;;;;13.50;5.63;;;;;;;;;;21252871;27;20514;-61
2022/12/29 04:46:51;;;;;;;12.30;5.55;;;;;;;;;;21251144;27;20043;-61
2022/12/29 04:56:53;;;;;;;10.02;5.05;;;;;;;;;;21250674;27;20059;-62
2022/12/29 05:06:55;;;;;;;8.88;4.13;;;;;;;;;;21251116;27;20162;-60
2022/12/29 05:17:16;;;;;;;7.60;3.17;;;;;;;;;;21250403;27;20055;-61
2022/12/29 05:27:38;;;;;;;7.10;3.20;;;;;;;;;;21235437;27;20047;-60
2022/12/29 05:37:43;;;;;;;12.40;4.97;;;;;;;;;;21248347;27;20498;-63
2022/12/29 05:47:46;;;;;;;11.75;4.95;;;;;;;;;;21250379;27;20079;-59
2022/12/29 05:57:49;;;;;;;9.35;3.85;;;;;;;;;;21268048;27;20078;-62
2022/12/29 06:07:51;;;;;;;5.95;3.05;;;;;;;;;;21265295;27;20130;-63
2022/12/29 06:17:53;;;;;;;6.18;2.85;;;;;;;;;;21264155;27;20047;-64
2022/12/29 06:27:56;;;;;;;7.82;3.80;;;;;;;;;;21264024;27;20131;-61
2022/12/29 06:37:58;;;;;;;9.50;3.47;;;;;;;;;;21263265;27;20043;-62
2022/12/29 06:48:00;;;;;;;8.27;3.08;;;;;;;;;;21261745;27;20045;-62
2022/12/29 06:58:02;;;;;;;7.30;3.38;;;;;;;;;;21261280;27;20095;-60
2022/12/29 07:08:05;;;;;;;9.32;4.38;;;;;;;;;;21259489;27;20073;-62
2022/12/29 07:18:07;;;;;;;9.48;3.90;;;;;;;;;;21259015;27;20047;-62
2022/12/29 07:28:10;;;;;;;14.23;5.60;;;;;;;;;;21258594;27;20096;-62
2022/12/29 07:38:12;;;;;;;11.13;5.22;;;;;;;;;;21257527;27;20054;-59
2022/12/29 07:48:14;;;;;;;6.95;4.15;;;;;;;;;;21256586;27;20192;-63
2022/12/29 07:58:15;;;;;;;8.27;5.30;;;;;;;;;;21255212;27;20051;-60
2022/12/29 08:08:17;;;;;;;9.55;4.05;;;;;;;;;;21255024;27;20138;-59
2022/12/29 08:18:19;;;;;;;16.85;6.15;;;;;;;;;;21253428;27;20053;-58
2022/12/29 08:28:21;;;;;;;17.08;6.13;;;;;;;;;;21254133;27;20047;-59
2022/12/29 08:38:23;;;;;;;5.43;2.75;;;;;;;;;;21233487;27;20111;-60
2022/12/29 08:48:25;;;;;;;7.43;2.60;;;;;;;;;;21251514;27;20099;-61
2022/12/29 08:58:28;;;;;;;9.75;2.88;;;;;;;;;;21250255;27;20058;-60
2022/12/29 09:08:30;;;;;;;11.65;3.00;;;;;;;;;;21250833;27;20445;-60
2022/12/29 09:18:32;;;;;;;7.80;2.30;;;;;;;;;;21231661;27;20467;-60
2022/12/29 09:28:34;;;;;;;3.90;1.85;;;;;;;;;;21249800;27;20082;-59
2022/12/29 09:38:36;;;;;;;6.15;1.90;;;;;;;;;;21248877;27;20103;-60
2022/12/29 09:48:40;;;;;;;4.07;1.27;;;;;;;;;;21248066;28;20047;-60
2022/12/29 09:58:44;;;;;;;5.85;1.17;;;;;;;;;;21240118;28;20055;-60
2022/12/29 10:09:04;;;;;;;5.47;1.77;;;;;;;;;;21247366;28;20054;-60
2022/12/29 10:19:26;;;;;;;6.30;1.83;;;;;;;;;;21247677;28;20459;-58
2022/12/29 10:29:34;;;;;;;8.32;2.08;;;;;;;;;;21248339;28;20485;-62
2022/12/29 10:39:43;;;;;;;3.80;1.20;;;;;;;;;;21258312;27;20047;-62
2022/12/29 10:49:47;;;;;;;4.22;1.27;;;;;;;;;;21261681;27;20126;-61
2022/12/29 10:59:49;;;;;;;6.32;1.40;;;;;;;;;;21259875;27;20062;-59
2022/12/29 11:09:51;;;;;;;4.22;1.58;;;;;;;;;;21260974;27;20456;-59
2022/12/29 11:19:54;;;;;;;3.08;1.42;;;;;;;;;;21259464;27;20051;-60
2022/12/29 11:29:56;;;;;;;3.33;1.70;;;;;;;;;;21258826;27;20073;-59
2022/12/29 11:40:04;;;;;;;3.67;1.17;;;;;;;;;;21257448;27;20406;-60
2022/12/29 11:50:08;;;;;;;3.65;1.10;;;;;;;;;;21255766;27;20093;-60
2022/12/29 12:00:20;;;;;;;2.95;1.10;;;;;;;;;;21256024;27;20501;-62
2022/12/29 12:10:25;;;;;;;4.15;1.00;;;;;;;;;;21255031;27;20051;-59
2022/12/29 12:20:33;;;;;;;6.93;1.42;;;;;;;;;;21255176;27;20138;-59
2022/12/29 12:30:41;;;;;;;1.95;0.80;;;;;;;;;;21249109;27;20051;-61
2022/12/29 12:41:03;;;;;;;1.92;1.10;;;;;;;;;;21300853;27;20086;-60
2022/12/29 12:51:14;;;;;;;3.10;0.90;;;;;;;;;;20907053;28;20491;-62
2022/12/29 13:01:32;;;;;;;1.38;0.98;;;;;;;;;;20906548;28;20052;-63
2022/12/29 13:11:49;;;;;;;2.10;0.80;;;;;;;;;;20906234;28;20123;-62
2022/12/29 13:21:57;;;;;;;6.97;1.02;;;;;;;;;;21012706;27;20042;-62
2022/12/29 13:32:18;;;;;;;6.75;1.25;;;;;;;;;;21334731;27;20058;-62
2022/12/29 13:42:20;;;;;;;3.83;0.90;;;;;;;;;;21335646;27;20494;-62
2022/12/29 13:52:28;;;;;;;4.68;0.70;;;;;;;;;;21334475;27;20460;-61
2022/12/29 14:02:37;;;;;;;3.85;0.90;;;;;;;;;;21334080;27;20417;-65
2022/12/29 14:12:41;;;;;;;5.23;0.80;;;;;;;;;;21342741;27;20039;-62
2022/12/29 14:23:01;;;;;;;2.42;1.00;;;;;;;;;;21348791;27;20057;-61
2022/12/29 14:33:12;;;;;;;2.80;0.80;;;;;;;;;;21349244;27;20047;-62
2022/12/29 14:43:19;;;;;;;1.13;0.75;;;;;;;;;;21328566;27;20047;-63
2022/12/29 14:53:39;;;;;;;1.88;0.82;;;;;;;;;;21253406;27;20540;-61
2022/12/29 15:03:45;;;;;;;7.15;0.93;;;;;;;;;;21233063;27;20055;-60
2022/12/29 15:13:48;;;;;;;3.60;0.85;;;;;;;;;;21229076;27;20522;-60
2022/12/29 15:23:50;;;;;;;1.80;0.90;;;;;;;;;;21247546;27;20128;-63
2022/12/29 15:33:54;;;;;;;3.15;0.95;;;;;;;;;;21232140;27;20457;-61
2022/12/29 15:44:05;;;;;;;2.33;1.00;;;;;;;;;;21229486;27;20119;-62
2022/12/29 15:54:15;;;;;;;5.28;1.25;;;;;;;;;;21248457;27;20474;-59
2022/12/29 16:04:18;;;;;;;2.05;0.93;;;;;;;;;;21247488;27;20055;-60
2022/12/29 16:14:34;;;;;;;3.00;1.00;;;;;;;;;;21248920;27;20762;-62
2022/12/29 16:24:38;;;;;;;1.92;1.00;;;;;;;;;;21230861;27;20082;-60
2022/12/29 16:34:40;;;;;;;11.93;6.13;;;;;;;;;;21248500;27;20051;-67
2022/12/29 16:44:42;;;;;;;3.40;0.90;;;;;;;;;;21247667;27;20480;-58
2022/12/29 16:54:48;;;;;;;3.25;1.00;;;;;;;;;;21254150;27;20043;-62
2022/12/29 17:04:52;;;;;;;2.78;0.90;;;;;;;;;;21244914;27;20503;-64
2022/12/29 17:14:58;;;;;;;3.58;1.23;;;;;;;;;;21302525;27;20047;-61
2022/12/29 17:25:02;;;;;;;1.73;1.02;;;;;;;;;;21273305;27;20479;-61
2022/12/29 17:35:04;;;;;;;1.42;1.05;;;;;;;;;;21231865;27;20090;-61
2022/12/29 17:45:06;;;;;;;1.73;1.00;;;;;;;;;;21277303;27;20039;-62
2022/12/29 17:55:14;;;;;;;4.18;0.93;;;;;;;;;;21286414;27;20047;-64
2022/12/29 18:05:30;;;;;;;1.73;0.93;;;;;;;;;;21290431;27;1176761;-61
2022/12/29 18:15:36;;;;;;;2.30;1.40;;;;;;;;;;21331494;27;20043;-61
2022/12/29 18:25:47;;;;;;;2.45;1.58;;;;;;;;;;21331145;27;20092;-59
2022/12/29 18:35:52;;;;;;;3.55;1.35;;;;;;;;;;21331158;27;20059;-60
2022/12/29 18:45:54;;;;;;;3.42;1.60;;;;;;;;;;21330867;27;20046;-60
2022/12/29 18:55:56;;;;;;;4.72;2.08;;;;;;;;;;21334870;27;20096;-61
2022/12/29 19:05:59;;;;;;;3.42;1.38;;;;;;;;;;21345829;27;20099;-61
2022/12/29 19:16:01;;;;;;;1.85;0.88;;;;;;;;;;21345992;27;20498;-60
2022/12/29 19:26:03;;;;;;;4.25;1.30;;;;;;;;;;21343937;27;20479;-61
2022/12/29 19:36:05;;;;;;;2.08;1.05;;;;;;;;;;21343804;27;20138;-60
2022/12/29 19:46:07;;;;;;;4.53;2.17;;;;;;;;;;21323787;27;20046;-60
2022/12/29 19:56:10;;;;;;;4.60;1.35;;;;;;;;;;21341465;27;20056;-60
2022/12/29 20:06:12;;;;;;;3.35;0.95;;;;;;;;;;21339858;27;20530;-60
2022/12/29 20:16:16;;;;;;;2.90;1.25;;;;;;;;;;21339609;27;20564;-61
2022/12/29 20:26:19;;;;;;;5.03;1.42;;;;;;;;;;21338428;27;20092;-60
2022/12/29 20:36:24;;;;;;;7.20;1.60;;;;;;;;;;21337271;27;20058;-60
2022/12/29 20:46:26;;;;;;;6.57;1.60;;;;;;;;;;21337236;27;20042;-60
2022/12/29 20:56:30;;;;;;;8.85;2.17;;;;;;;;;;21337611;27;20051;-59
2022/12/29 21:06:32;;;;;;;6.00;1.73;;;;;;;;;;21336145;27;20455;-60
2022/12/29 21:16:35;;;;;;;8.50;2.05;;;;;;;;;;21336110;27;20085;-59
2022/12/29 21:26:37;;;;;;;14.43;2.00;;;;;;;;;;21336228;27;20470;-61
2022/12/29 21:36:39;;;;;;;6.75;1.67;;;;;;;;;;21335787;27;20047;-61
2022/12/29 21:46:44;;;;;;;8.27;1.67;;;;;;;;;;21334170;27;20095;-61
2022/12/29 21:56:47;;;;;;;7.70;1.80;;;;;;;;;;21333227;27;20395;-61
2022/12/29 22:17:10;;;;;;;9.40;1.95;;;;;;;;;;21333611;27;20448;-62
2022/12/29 22:27:12;;;;;;;7.93;1.80;;;;;;;;;;21333547;27;20527;-61
2022/12/29 22:37:16;;;;;;;7.25;1.63;;;;;;;;;;21347024;27;20410;-58
2022/12/29 22:47:18;;;;;;;9.10;2.75;;;;;;;;;;21347787;27;20047;-62
2022/12/29 22:57:20;;;;;;;11.13;2.13;;;;;;;;;;21346650;27;20133;-62
2022/12/29 23:07:24;;;;;;;10.48;2.00;;;;;;;;;;21345866;27;20043;-59
2022/12/29 23:17:27;;;;;;;12.27;2.80;;;;;;;;;;21345594;27;20236;-60
2022/12/29 23:27:29;;;;;;;8.90;2.47;;;;;;;;;;21344905;27;20095;-61
2022/12/29 23:37:31;;;;;;;15.32;2.22;;;;;;;;;;21344474;27;20054;-61
2022/12/29 23:47:33;;;;;;;16.67;3.20;;;;;;;;;;21344720;27;20050;-61
2022/12/29 23:57:35;;;;;;;15.82;3.28;;;;;;;;;;21343775;27;20065;-61
